Aeroporto :
LOGIN :

Iscrizione | Disclaimer

   EN    FR    IT 

 










Sommario :    VFR   VFR Marginale   IFR   IFR Intensivo   IFR Molto Intensivo
Visibilità : 
Base nubi : 
>= 8 km
>= 3000ft
5 / 8 km
1000 / 3000 ft
1500m / 5 km
500 / 1000 ft
800 / 1500m
200 / 500 ft
< 800m
< 200 ft
Simboli :   Temporali  Nebbia  Neve Forte  Precipitazioni Forti  Vento > 20 kt
SIGMETs :   Varie  Temporali  Ghiacco  Turbolenza  Onda orograficha  Ceneri Vulcaniche






- Altitudine del aeroporto : 1516 ft
- Codice IATA : AGB


EDMA - Augsburg

ULTIMO METAR :
  • 211050Z 33004KT 270V040 CAVOK 28/19 Q1010

METARs OBSOLETI :
  • 211020Z VRB04KT 9999 FEW036 27/19 Q1010
  • 210950Z 27007KT 220V320 CAVOK 26/17 Q1010
  • 210920Z 25004KT 190V310 CAVOK 26/19 Q1010
  • 210850Z VRB02KT CAVOK 25/19 Q1010
  • 210820Z VRB02KT CAVOK 24/19 Q1010
  • 210750Z VRB02KT CAVOK 22/18 Q1010
  • 210720Z 21003KT CAVOK 22/18 Q1010
  • 210650Z VRB02KT CAVOK 22/18 Q1010
  • 210620Z AUTO VRB02KT 9999 // NCD 20/18 Q1010

TAF TAF EDMA
Valido dal 21 a 09 ore il 21 a 18 ore UTC


210800Z 2109/2118 VRB03KT CAVOK
BECMG 2111/2113 32005KT
PROB30
TEMPO 2116/2118 25020G35KT 4000 TSRA BKN050CB



MetMap, La meteo Aeronautica in un colpo d'occhio ! - Copyright ORBIFLY Dicembre 2007 - Disclaimer

ORBIFLY MET'MAP TEAM :

Programmazione e sviluppo : Alexandra Zaïnal
Concezione : Baudouin d'Aumeries
Supporto tecnico e logistico : Manuel Goepfert
Aiuto : Marc-Olivier Méhu
Aiuto per la traduzione : Arnaldo La Scala




FONTI E CREDITI :

   NOAA